createdAt,value
2022-08-07T00:00:36.125Z,16.57
2022-08-07T00:03:07.129Z,16.51
2022-08-07T00:05:36.170Z,16.49
2022-08-07T00:08:04.827Z,16.48
2022-08-07T00:10:31.876Z,16.44
2022-08-07T00:13:03.197Z,16.43
2022-08-07T00:15:46.797Z,16.34
2022-08-07T00:18:24.500Z,16.37
2022-08-07T00:21:03.448Z,16.40
2022-08-07T00:23:36.821Z,16.36
2022-08-07T00:26:13.182Z,16.27
2022-08-07T00:28:46.196Z,16.28
2022-08-07T00:31:22.183Z,16.22
2022-08-07T00:33:48.778Z,16.22
2022-08-07T00:36:16.911Z,16.19
2022-08-07T00:38:43.681Z,16.08
2022-08-07T00:41:14.766Z,15.94
2022-08-07T00:44:00.445Z,15.94
2022-08-07T00:46:30.044Z,15.99
2022-08-07T00:49:02.158Z,15.96
2022-08-07T00:51:56.730Z,15.98
2022-08-07T00:54:19.636Z,15.88
2022-08-07T00:56:49.929Z,15.80
2022-08-07T00:59:17.784Z,15.81
2022-08-07T01:01:48.401Z,15.79
2022-08-07T01:04:24.538Z,15.82
2022-08-07T01:06:51.588Z,15.75
2022-08-07T01:09:35.623Z,15.75
2022-08-07T01:12:29.005Z,15.82
2022-08-07T01:14:57.130Z,15.84
2022-08-07T01:17:29.960Z,15.78
2022-08-07T01:20:04.858Z,15.68
2022-08-07T01:22:33.155Z,15.67
2022-08-07T01:25:00.771Z,15.61
2022-08-07T01:27:32.274Z,15.65
2022-08-07T01:30:01.125Z,15.64
2022-08-07T01:32:30.111Z,15.60
2022-08-07T01:34:58.140Z,15.57
2022-08-07T01:37:25.744Z,15.57
2022-08-07T01:39:54.751Z,15.52
2022-08-07T01:42:38.373Z,15.51
2022-08-07T01:45:09.777Z,15.58
2022-08-07T01:48:20.504Z,15.47
2022-08-07T01:50:28.797Z,15.34
2022-08-07T01:52:59.080Z,15.41
2022-08-07T01:55:36.379Z,15.39
2022-08-07T01:58:27.203Z,15.10
2022-08-07T02:01:09.962Z,15.17
2022-08-07T02:03:50.491Z,15.04
2022-08-07T02:06:31.679Z,15.03
2022-08-07T02:09:04.313Z,15.11
2022-08-07T02:25:18.358Z,14.69
2022-08-07T02:27:56.681Z,14.65
2022-08-07T02:30:24.344Z,14.51
2022-08-07T02:33:08.893Z,14.46
2022-08-07T02:36:29.684Z,14.43
2022-08-07T02:38:31.579Z,14.32
2022-08-07T02:41:03.878Z,14.28
2022-08-07T02:43:35.203Z,14.24
2022-08-07T02:46:06.400Z,14.30
2022-08-07T02:48:35.440Z,14.28
2022-08-07T02:51:28.852Z,14.43
2022-08-07T02:53:58.304Z,14.31
2022-08-07T02:56:31.443Z,14.31
2022-08-07T02:59:01.968Z,14.25
2022-08-07T03:01:36.462Z,14.19
2022-08-07T03:04:14.002Z,14.04
2022-08-07T03:06:48.284Z,14.06
2022-08-07T03:09:44.625Z,14.07
2022-08-07T03:12:06.616Z,14.03
2022-08-07T03:14:36.317Z,13.87
2022-08-07T03:17:04.865Z,13.91
2022-08-07T03:19:37.045Z,13.81
2022-08-07T03:22:07.061Z,13.77
2022-08-07T03:24:34.769Z,13.83
2022-08-07T03:27:06.159Z,13.96
2022-08-07T03:29:49.393Z,13.91
2022-08-07T03:32:22.816Z,13.80
2022-08-07T03:35:01.190Z,13.77
2022-08-07T03:37:46.032Z,13.72
2022-08-07T03:40:20.278Z,13.89
2022-08-07T03:42:50.088Z,13.61
2022-08-07T03:45:30.426Z,13.61
2022-08-07T03:48:02.225Z,13.54
2022-08-07T03:50:31.314Z,13.55
2022-08-07T03:53:02.746Z,13.65
2022-08-07T03:55:52.991Z,13.60
2022-08-07T03:59:05.609Z,13.60
2022-08-07T04:01:11.111Z,13.49
2022-08-07T04:03:53.304Z,13.36
2022-08-07T04:06:37.577Z,13.36
2022-08-07T04:09:15.753Z,13.31
2022-08-07T04:12:23.990Z,13.34
2022-08-07T04:14:37.312Z,13.23
2022-08-07T04:17:29.374Z,13.33
2022-08-07T04:19:55.631Z,13.31
2022-08-07T04:22:28.841Z,13.29
2022-08-07T04:24:58.834Z,13.32
2022-08-07T04:27:29.004Z,13.25
2022-08-07T04:30:11.861Z,13.30
2022-08-07T04:32:58.188Z,13.34
2022-08-07T04:35:25.780Z,13.25
2022-08-07T04:38:03.939Z,13.29
2022-08-07T04:40:52.143Z,13.25
2022-08-07T04:44:12.271Z,13.27
2022-08-07T04:47:04.742Z,13.21
2022-08-07T04:50:11.346Z,13.15
2022-08-07T04:52:51.100Z,13.23
2022-08-07T04:58:09.900Z,13.25
2022-08-07T04:58:33.763Z,13.32
2022-08-07T05:01:30.209Z,13.36
2022-08-07T05:04:12.510Z,13.37
2022-08-07T05:06:51.231Z,13.38
2022-08-07T05:09:42.948Z,13.51
2022-08-07T05:12:15.592Z,13.59
2022-08-07T05:15:04.434Z,13.80
2022-08-07T05:17:52.045Z,13.83
2022-08-07T05:20:26.836Z,13.98
2022-08-07T05:23:02.092Z,13.99
2022-08-07T05:25:54.533Z,14.10
2022-08-07T05:28:23.126Z,14.32
2022-08-07T05:30:56.844Z,14.35
2022-08-07T05:33:28.381Z,14.44
2022-08-07T05:35:56.700Z,14.52
2022-08-07T05:38:59.634Z,14.60
2022-08-07T05:41:16.780Z,14.65
2022-08-07T05:44:12.736Z,14.87
2022-08-07T05:46:38.662Z,15.07
2022-08-07T05:49:11.680Z,15.28
2022-08-07T05:51:41.213Z,15.32
2022-08-07T05:54:31.537Z,15.35
2022-08-07T05:56:58.853Z,15.57
2022-08-07T05:59:28.064Z,15.63
2022-08-07T06:02:00.934Z,15.83
2022-08-07T06:04:30.253Z,16.02
2022-08-07T06:07:03.776Z,15.85
2022-08-07T06:10:03.184Z,15.96
2022-08-07T06:12:27.887Z,15.93
2022-08-07T06:15:05.371Z,15.94
2022-08-07T06:17:37.825Z,16.09
2022-08-07T06:20:12.393Z,16.23
2022-08-07T06:23:02.347Z,16.56
2022-08-07T06:25:54.492Z,16.56
2022-08-07T06:28:28.058Z,16.71
2022-08-07T06:30:56.449Z,16.99
2022-08-07T06:33:26.063Z,17.05
2022-08-07T06:36:13.380Z,17.11
2022-08-07T06:38:59.143Z,17.40
2022-08-07T06:41:58.829Z,17.40
2022-08-07T06:44:39.789Z,17.42
2022-08-07T06:47:10.188Z,17.38
2022-08-07T06:49:51.971Z,17.45
2022-08-07T06:52:32.023Z,17.77
2022-08-07T06:55:34.546Z,17.86
2022-08-07T06:58:00.013Z,18.08
2022-08-07T07:00:36.723Z,18.25
2022-08-07T07:03:10.736Z,18.05
2022-08-07T07:06:05.214Z,18.17
2022-08-07T07:08:31.050Z,18.19
2022-08-07T07:11:00.999Z,18.37
2022-08-07T07:13:41.666Z,18.75
2022-08-07T07:16:30.440Z,19.01
2022-08-07T07:19:37.316Z,19.11
2022-08-07T07:22:11.882Z,19.38
2022-08-07T07:24:42.930Z,19.37
2022-08-07T07:27:19.381Z,19.50
2022-08-07T07:30:08.933Z,19.55
2022-08-07T07:32:40.282Z,20.20
2022-08-07T07:35:10.936Z,20.52
2022-08-07T07:37:47.451Z,20.64
2022-08-07T07:40:19.612Z,20.13
2022-08-07T07:42:53.841Z,20.56
2022-08-07T07:46:37.036Z,20.84
2022-08-07T07:48:35.428Z,20.83
2022-08-07T07:51:07.840Z,20.95
2022-08-07T07:53:51.873Z,21.01
2022-08-07T07:56:30.024Z,21.04
2022-08-07T07:59:01.534Z,21.38
2022-08-07T08:02:01.888Z,21.49
2022-08-07T08:04:19.548Z,21.65
2022-08-07T08:06:53.335Z,21.57
2022-08-07T08:09:24.152Z,21.97
2022-08-07T08:12:02.336Z,21.79
2022-08-07T08:14:36.658Z,22.28
2022-08-07T08:17:32.284Z,22.09
2022-08-07T08:20:18.311Z,22.69
2022-08-07T08:23:08.493Z,22.64
2022-08-07T08:25:58.031Z,22.55
2022-08-07T08:28:38.540Z,23.21
2022-08-07T08:31:15.939Z,22.68
2022-08-07T08:33:49.453Z,23.23
2022-08-07T08:36:30.128Z,23.11
2022-08-07T08:38:59.881Z,23.34
2022-08-07T08:41:57.469Z,23.39
2022-08-07T08:45:13.041Z,23.58
2022-08-07T08:48:01.695Z,23.71
2022-08-07T08:50:39.600Z,23.74
2022-08-07T08:53:38.754Z,23.98
2022-08-07T08:56:11.460Z,24.55
2022-08-07T08:59:06.309Z,24.55
2022-08-07T09:02:00.328Z,24.49
2022-08-07T09:04:41.560Z,25.07
2022-08-07T09:07:34.195Z,25.72
2022-08-07T09:10:25.352Z,24.85
2022-08-07T09:13:14.726Z,25.48
2022-08-07T09:16:20.309Z,25.44
2022-08-07T09:18:58.523Z,25.48
2022-08-07T09:21:58.202Z,25.97
2022-08-07T09:24:55.975Z,25.90
2022-08-07T09:28:00.001Z,26.39
2022-08-07T09:30:36.833Z,27.85
2022-08-07T09:33:41.190Z,28.63
2022-08-07T09:36:37.196Z,29.38
2022-08-07T09:39:53.035Z,29.75
2022-08-07T09:42:23.078Z,29.84
2022-08-07T09:47:24.152Z,30.32
2022-08-07T09:48:11.774Z,30.53
2022-08-07T09:50:56.028Z,31.04
2022-08-07T09:53:25.589Z,31.42
2022-08-07T09:56:37.713Z,31.49
2022-08-07T09:59:21.638Z,31.42
2022-08-07T10:02:05.147Z,31.64
2022-08-07T10:04:58.565Z,31.62
2022-08-07T10:07:53.461Z,31.15
2022-08-07T10:11:59.418Z,31.64
2022-08-07T10:14:11.142Z,31.67
2022-08-07T10:16:59.701Z,32.12
2022-08-07T10:19:43.487Z,32.45
2022-08-07T10:22:38.264Z,32.29
2022-08-07T10:25:22.858Z,32.47
2022-08-07T10:28:14.307Z,32.29
2022-08-07T10:31:18.699Z,32.08
2022-08-07T10:34:05.867Z,31.96
2022-08-07T10:36:58.894Z,32.29
2022-08-07T10:40:02.631Z,32.52
2022-08-07T10:42:37.095Z,32.11
2022-08-07T10:45:19.418Z,32.60
2022-08-07T10:48:13.413Z,32.36
2022-08-07T10:50:50.336Z,32.09
2022-08-07T10:53:44.526Z,32.58
2022-08-07T10:56:33.584Z,31.96
2022-08-07T10:59:21.291Z,32.52
2022-08-07T11:02:05.249Z,32.67
2022-08-07T11:05:24.433Z,32.61
2022-08-07T11:08:29.227Z,32.49
2022-08-07T11:11:06.060Z,32.61
2022-08-07T11:14:44.866Z,32.69
2022-08-07T11:16:39.295Z,32.98
2022-08-07T11:19:14.040Z,33.00
2022-08-07T11:21:58.786Z,33.43
2022-08-07T11:24:46.283Z,33.45
2022-08-07T11:28:02.405Z,33.86
2022-08-07T11:30:41.390Z,33.51
2022-08-07T11:33:18.895Z,33.10
2022-08-07T11:36:25.185Z,33.42
2022-08-07T11:39:06.981Z,33.04
2022-08-07T11:42:00.214Z,32.86
2022-08-07T11:44:52.706Z,33.16
2022-08-07T11:47:53.571Z,33.17
2022-08-07T11:50:44.467Z,33.00
2022-08-07T11:53:43.207Z,32.98
2022-08-07T11:56:56.168Z,32.79
2022-08-07T12:00:11.063Z,32.38
2022-08-07T12:02:52.561Z,32.94
2022-08-07T12:05:47.420Z,32.45
2022-08-07T12:08:26.110Z,32.27
2022-08-07T12:11:21.451Z,32.12
2022-08-07T12:14:11.833Z,32.36
2022-08-07T12:16:46.531Z,32.25
2022-08-07T12:19:22.137Z,32.54
2022-08-07T12:22:38.590Z,32.15
2022-08-07T12:26:06.042Z,31.83
2022-08-07T12:28:37.637Z,32.12
2022-08-07T12:31:23.603Z,32.25
2022-08-07T12:34:00.607Z,32.40
2022-08-07T12:36:33.024Z,32.33
2022-08-07T12:39:09.283Z,32.09
2022-08-07T12:41:53.594Z,32.02
2022-08-07T12:44:21.576Z,32.11
2022-08-07T12:47:01.354Z,32.54
2022-08-07T12:49:51.623Z,32.35
2022-08-07T12:52:58.604Z,32.60
2022-08-07T12:55:41.408Z,32.42
2022-08-07T12:58:28.031Z,32.75
2022-08-07T13:01:14.617Z,32.85
2022-08-07T13:04:04.821Z,32.30
2022-08-07T13:06:36.414Z,32.69
2022-08-07T13:10:28.454Z,32.72
2022-08-07T13:12:56.068Z,32.70
2022-08-07T13:15:47.684Z,32.64
2022-08-07T13:18:31.221Z,32.73
2022-08-07T13:21:13.063Z,32.57
2022-08-07T13:24:00.738Z,32.39
2022-08-07T13:26:46.224Z,32.41
2022-08-07T13:29:23.543Z,32.43
2022-08-07T13:32:23.536Z,32.64
2022-08-07T13:34:55.258Z,32.22
2022-08-07T13:37:32.004Z,32.52
2022-08-07T13:40:36.371Z,32.63
2022-08-07T13:43:11.730Z,32.35
2022-08-07T13:46:11.577Z,32.49
2022-08-07T13:48:34.664Z,32.44
2022-08-07T13:51:27.050Z,32.07
2022-08-07T13:54:16.545Z,31.93
2022-08-07T13:56:59.462Z,30.86
2022-08-07T13:59:31.262Z,31.24
2022-08-07T14:02:15.035Z,31.74
2022-08-07T14:04:54.978Z,31.65
2022-08-07T14:07:30.595Z,31.19
2022-08-07T14:22:00.529Z,31.22
2022-08-07T14:24:09.248Z,31.14
2022-08-07T14:26:51.207Z,31.27
2022-08-07T14:30:05.562Z,31.31
2022-08-07T14:32:24.899Z,31.11
2022-08-07T14:34:53.991Z,31.33
2022-08-07T14:37:35.226Z,31.43
2022-08-07T14:40:17.944Z,31.35
2022-08-07T14:43:01.471Z,31.25
2022-08-07T14:45:49.982Z,31.46
2022-08-07T14:48:20.792Z,31.34
2022-08-07T14:50:51.375Z,31.56
2022-08-07T14:56:13.133Z,31.41
2022-08-07T14:58:54.917Z,31.91
2022-08-07T15:01:42.751Z,31.95
2022-08-07T15:04:18.172Z,32.09
2022-08-07T15:06:47.589Z,32.63
2022-08-07T15:09:59.949Z,32.18
2022-08-07T15:12:09.788Z,32.69
2022-08-07T15:14:59.288Z,33.20
2022-08-07T15:17:54.557Z,32.83
2022-08-07T15:20:32.692Z,33.21
2022-08-07T15:23:20.615Z,33.12
2022-08-07T15:25:53.441Z,32.83
2022-08-07T15:32:01.161Z,33.84
2022-08-07T15:34:05.844Z,34.19
2022-08-07T15:37:04.087Z,34.58
2022-08-07T15:39:56.568Z,34.08
2022-08-07T15:42:43.839Z,34.56
2022-08-07T15:45:58.296Z,34.61
2022-08-07T15:48:35.485Z,34.56
2022-08-07T15:51:11.996Z,35.03
2022-08-07T15:53:52.823Z,35.07
2022-08-07T15:56:24.590Z,34.42
2022-08-07T15:58:57.761Z,34.52
2022-08-07T16:01:39.435Z,34.70
2022-08-07T16:04:15.583Z,34.24
2022-08-07T16:06:52.461Z,34.47
2022-08-07T16:09:41.092Z,34.61
2022-08-07T16:13:01.213Z,34.50
2022-08-07T16:15:57.366Z,34.95
2022-08-07T16:18:49.679Z,34.13
2022-08-07T16:22:05.820Z,33.92
2022-08-07T16:24:55.043Z,33.54
2022-08-07T16:27:40.599Z,33.26
2022-08-07T16:30:31.690Z,33.47
2022-08-07T16:34:03.016Z,33.34
2022-08-07T16:36:23.038Z,32.91
2022-08-07T16:39:40.372Z,32.76
2022-08-07T16:42:23.507Z,32.24
2022-08-07T16:46:47.546Z,32.02
2022-08-07T16:49:04.285Z,31.98
2022-08-07T16:52:01.295Z,32.15
2022-08-07T16:54:54.221Z,31.79
2022-08-07T16:58:03.510Z,31.96
2022-08-07T17:00:29.648Z,31.81
2022-08-07T17:03:57.890Z,31.65
2022-08-07T17:06:41.084Z,31.09
2022-08-07T17:10:07.049Z,30.65
2022-08-07T17:12:35.088Z,30.40
2022-08-07T17:15:15.580Z,30.01
2022-08-07T17:17:46.512Z,29.92
2022-08-07T17:20:32.888Z,29.49
2022-08-07T17:23:16.921Z,29.36
2022-08-07T17:25:59.372Z,29.13
2022-08-07T17:28:56.495Z,28.90
2022-08-07T17:31:44.183Z,28.89
2022-08-07T17:35:02.717Z,28.70
2022-08-07T17:38:06.260Z,28.50
2022-08-07T17:40:50.683Z,28.22
2022-08-07T17:44:01.511Z,28.07
2022-08-07T17:46:37.857Z,27.87
2022-08-07T17:49:39.356Z,27.73
2022-08-07T17:52:17.900Z,27.48
2022-08-07T17:54:53.689Z,27.27
2022-08-07T17:57:59.207Z,27.16
2022-08-07T18:00:34.691Z,27.08
2022-08-07T18:04:04.461Z,27.03
2022-08-07T18:06:42.968Z,26.98
2022-08-07T18:09:18.622Z,26.88
2022-08-07T18:12:28.622Z,26.76
2022-08-07T18:15:08.462Z,26.73
2022-08-07T18:18:45.045Z,26.53
2022-08-07T18:21:42.238Z,26.42
2022-08-07T18:24:41.108Z,26.41
2022-08-07T18:27:25.352Z,26.33
2022-08-07T18:30:31.366Z,26.25
2022-08-07T18:33:29.006Z,26.12
2022-08-07T18:36:14.065Z,26.01
2022-08-07T18:38:57.069Z,25.76
2022-08-07T18:41:53.124Z,25.74
2022-08-07T18:44:31.665Z,25.58
2022-08-07T18:47:10.925Z,25.40
2022-08-07T18:50:39.139Z,25.39
2022-08-07T18:53:39.567Z,25.31
2022-08-07T18:56:34.208Z,25.14
2022-08-07T18:59:47.669Z,24.98
2022-08-07T19:02:34.015Z,24.86
2022-08-07T19:06:02.596Z,24.72
2022-08-07T19:08:52.208Z,24.52
2022-08-07T19:11:35.633Z,24.61
2022-08-07T19:14:17.026Z,24.38
2022-08-07T19:17:05.783Z,24.24
2022-08-07T19:19:48.828Z,23.91
2022-08-07T19:22:30.329Z,23.86
2022-08-07T19:25:06.415Z,23.65
2022-08-07T19:28:57.423Z,23.46
2022-08-07T19:31:05.416Z,23.28
2022-08-07T19:33:33.596Z,23.28
2022-08-07T19:36:08.657Z,23.26
2022-08-07T19:38:52.492Z,23.20
2022-08-07T19:41:44.239Z,23.20
2022-08-07T19:44:21.141Z,23.10
2022-08-07T19:46:55.633Z,22.88
2022-08-07T19:49:58.578Z,22.87
2022-08-07T19:52:28.538Z,22.82
2022-08-07T19:54:57.371Z,22.55
2022-08-07T19:58:02.926Z,22.54
2022-08-07T20:00:29.301Z,22.36
2022-08-07T20:03:01.791Z,22.16
2022-08-07T20:06:00.102Z,22.09
2022-08-07T20:08:27.328Z,21.97
2022-08-07T20:11:01.728Z,22.00
2022-08-07T20:13:41.939Z,22.03
2022-08-07T20:16:15.854Z,22.03
2022-08-07T20:19:00.116Z,21.89
2022-08-07T20:21:41.759Z,21.48
2022-08-07T20:24:24.071Z,21.48
2022-08-07T20:26:58.400Z,21.43
2022-08-07T20:29:49.574Z,21.28
2022-08-07T20:32:26.200Z,21.31
2022-08-07T20:35:10.880Z,21.27
2022-08-07T20:37:55.536Z,21.18
2022-08-07T20:40:33.002Z,21.15
2022-08-07T20:43:02.381Z,20.95
2022-08-07T20:45:33.418Z,20.79
2022-08-07T20:48:29.010Z,20.74
2022-08-07T20:51:00.098Z,20.60
2022-08-07T20:54:04.171Z,20.61
2022-08-07T20:56:16.497Z,20.54
2022-08-07T20:58:50.268Z,20.52
2022-08-07T21:01:21.115Z,20.44
2022-08-07T21:04:18.694Z,20.49
2022-08-07T21:06:46.554Z,20.42
2022-08-07T21:09:24.304Z,20.06
2022-08-07T21:11:57.019Z,20.20
2022-08-07T21:14:34.254Z,20.05
2022-08-07T21:18:01.110Z,20.03
2022-08-07T21:20:04.482Z,19.78
2022-08-07T21:22:38.375Z,19.67
2022-08-07T21:25:20.084Z,19.65
2022-08-07T21:28:10.235Z,19.73
2022-08-07T21:30:56.719Z,19.71
2022-08-07T21:33:41.766Z,19.72
2022-08-07T21:36:11.899Z,19.60
2022-08-07T21:39:05.546Z,19.41
2022-08-07T21:42:02.700Z,19.40
2022-08-07T21:44:53.895Z,19.41
2022-08-07T21:47:50.127Z,19.40
2022-08-07T21:50:25.134Z,19.43
2022-08-07T21:53:09.891Z,19.49
2022-08-07T21:55:42.472Z,19.39
2022-08-07T21:58:12.275Z,19.34
2022-08-07T22:01:02.942Z,19.33
2022-08-07T22:04:03.645Z,19.37
2022-08-07T22:06:45.015Z,19.34
2022-08-07T22:09:16.338Z,19.39
2022-08-07T22:12:04.784Z,19.38
2022-08-07T22:15:03.187Z,19.50
2022-08-07T22:18:14.325Z,19.46
2022-08-07T22:20:54.480Z,19.48
2022-08-07T22:23:28.279Z,19.50
2022-08-07T22:26:23.015Z,19.28
2022-08-07T22:29:01.796Z,19.06
2022-08-07T22:31:59.744Z,19.03
2022-08-07T22:34:35.652Z,18.94
2022-08-07T22:38:04.225Z,18.93
2022-08-07T22:40:29.685Z,18.83
2022-08-07T22:43:03.188Z,18.83
2022-08-07T22:46:21.938Z,18.83
2022-08-07T22:49:07.808Z,18.81
2022-08-07T22:51:52.023Z,18.77
2022-08-07T22:54:40.433Z,18.69
2022-08-07T22:57:50.547Z,18.65
2022-08-07T23:00:57.682Z,18.62
2022-08-07T23:03:58.942Z,18.58
2022-08-07T23:06:50.001Z,18.46
2022-08-07T23:10:06.535Z,18.38
2022-08-07T23:13:06.632Z,18.40
2022-08-07T23:16:06.157Z,18.38
2022-08-07T23:19:48.114Z,18.37
2022-08-07T23:22:36.468Z,18.24
2022-08-07T23:25:18.931Z,18.26
2022-08-07T23:28:22.618Z,18.22
2022-08-07T23:31:42.868Z,18.09
2022-08-07T23:34:37.253Z,18.07
2022-08-07T23:37:22.554Z,17.96
2022-08-07T23:40:26.044Z,17.93
2022-08-07T23:43:16.751Z,17.91
2022-08-07T23:46:28.708Z,17.90
2022-08-07T23:49:26.224Z,17.87
2022-08-07T23:53:11.815Z,17.73
2022-08-07T23:55:53.697Z,17.66
2022-08-07T23:59:10.419Z,17.58
